Time;durP1;ratioP1;P1;durP2;ratioP2;P2;SDS_P1;SDS_P2;PMS_P1;PMS_P2;Temp;Humidity;BMP_temperature;BMP_pressure;BME280_temperature;BME280_humidity;BME280_pressure;Samples;Min_cycle;Max_cycle;Signal;HPM_P1;HPM_P2
2023/05/15 00:01:12;;;;;;;5.10;4.22;;;;;;;;;;5075119;28;20144;-83
2023/05/15 00:04:08;;;;;;;2.33;2.03;;;;;;;;;;5074677;28;20044;-82
2023/05/15 00:06:54;;;;;;;8.30;3.88;;;;;;;;;;5074804;28;20054;-82
2023/05/15 00:09:40;;;;;;;7.50;4.82;;;;;;;;;;5074494;28;20048;-82
2023/05/15 00:12:26;;;;;;;6.60;4.15;;;;;;;;;;5074492;28;20402;-82
2023/05/15 00:15:14;;;;;;;8.30;4.70;;;;;;;;;;5074710;28;20041;-82
2023/05/15 00:18:03;;;;;;;10.10;4.85;;;;;;;;;;5066315;28;20040;-82
2023/05/15 00:20:49;;;;;;;9.10;4.25;;;;;;;;;;5074774;28;20049;-82
2023/05/15 00:23:37;;;;;;;9.88;4.35;;;;;;;;;;5059383;28;20045;-82
2023/05/15 00:26:26;;;;;;;8.40;5.32;;;;;;;;;;5074408;28;20040;-82
2023/05/15 00:29:11;;;;;;;10.90;4.70;;;;;;;;;;5073480;28;20052;-82
2023/05/15 00:31:57;;;;;;;5.97;4.25;;;;;;;;;;5065561;28;20052;-81
2023/05/15 00:34:44;;;;;;;9.07;5.10;;;;;;;;;;5066170;28;20040;-82
2023/05/15 00:37:29;;;;;;;12.95;5.05;;;;;;;;;;5075124;28;20052;-82
2023/05/15 00:40:26;;;;;;;7.20;4.70;;;;;;;;;;5074175;28;20048;-81
2023/05/15 00:43:11;;;;;;;7.60;4.90;;;;;;;;;;5059860;28;20040;-80
2023/05/15 00:45:58;;;;;;;9.70;4.45;;;;;;;;;;5059615;28;20393;-80
2023/05/15 00:48:44;;;;;;;7.22;4.10;;;;;;;;;;5068909;28;20041;-81
2023/05/15 00:51:34;;;;;;;14.13;5.47;;;;;;;;;;5070178;28;20041;-80
2023/05/15 00:54:19;;;;;;;15.50;4.82;;;;;;;;;;5078716;28;20052;-80
2023/05/15 00:57:05;;;;;;;9.02;4.15;;;;;;;;;;5070354;28;20052;-80
2023/05/15 00:59:51;;;;;;;9.52;4.95;;;;;;;;;;5079107;28;20037;-82
2023/05/15 01:02:37;;;;;;;6.85;3.83;;;;;;;;;;5078914;28;20044;-81
2023/05/15 01:05:22;;;;;;;8.02;3.88;;;;;;;;;;5078837;28;20044;-81
2023/05/15 01:08:22;;;;;;;7.25;4.03;;;;;;;;;;5078495;28;20040;-81
2023/05/15 01:11:12;;;;;;;10.65;5.28;;;;;;;;;;5073924;28;20053;-81
2023/05/15 01:13:58;;;;;;;8.40;5.10;;;;;;;;;;5059819;28;20048;-82
2023/05/15 01:16:44;;;;;;;10.60;4.18;;;;;;;;;;5074935;28;20052;-81
2023/05/15 01:19:30;;;;;;;7.45;4.88;;;;;;;;;;5073882;28;20037;-81
2023/05/15 01:22:24;;;;;;;8.48;5.32;;;;;;;;;;5073870;28;20040;-82
2023/05/15 01:25:19;;;;;;;9.60;5.25;;;;;;;;;;5080353;28;20048;-81
2023/05/15 01:28:11;;;;;;;5.63;3.22;;;;;;;;;;5058772;28;20049;-81
2023/05/15 01:31:01;;;;;;;7.40;4.57;;;;;;;;;;5063996;28;20044;-81
2023/05/15 01:33:55;;;;;;;4.93;3.63;;;;;;;;;;5073540;28;20400;-81
2023/05/15 01:36:56;;;;;;;6.07;4.10;;;;;;;;;;5073713;28;20033;-82
2023/05/15 01:39:47;;;;;;;7.88;4.70;;;;;;;;;;5073574;28;20036;-82
2023/05/15 01:42:37;;;;;;;4.28;3.65;;;;;;;;;;5077326;28;20052;-82
2023/05/15 01:45:23;;;;;;;6.53;3.47;;;;;;;;;;5068535;28;20493;-83
2023/05/15 01:48:11;;;;;;;4.85;3.70;;;;;;;;;;5060959;28;20041;-82
2023/05/15 01:51:02;;;;;;;6.05;3.75;;;;;;;;;;5076968;28;20053;-82
2023/05/15 01:53:49;;;;;;;12.23;3.22;;;;;;;;;;5077183;28;20053;-82
2023/05/15 01:56:36;;;;;;;9.27;3.63;;;;;;;;;;5076990;28;20044;-81
2023/05/15 01:59:23;;;;;;;7.55;4.20;;;;;;;;;;5069125;28;20108;-82
2023/05/15 02:02:09;;;;;;;10.18;4.63;;;;;;;;;;5076923;28;20053;-81
2023/05/15 02:04:56;;;;;;;9.40;4.75;;;;;;;;;;5068807;28;20044;-82
2023/05/15 02:07:42;;;;;;;7.70;4.57;;;;;;;;;;5076927;28;20040;-81
2023/05/15 02:10:28;;;;;;;9.32;4.13;;;;;;;;;;5066378;28;20048;-82
2023/05/15 02:13:14;;;;;;;8.15;4.70;;;;;;;;;;5077055;28;20041;-81
2023/05/15 02:16:00;;;;;;;6.85;4.90;;;;;;;;;;5068570;28;20044;-82
2023/05/15 02:18:45;;;;;;;6.28;3.78;;;;;;;;;;5068365;28;20044;-82
2023/05/15 02:21:31;;;;;;;9.10;5.00;;;;;;;;;;5076436;28;20045;-82
2023/05/15 02:24:16;;;;;;;11.45;4.75;;;;;;;;;;5075888;28;20044;-82
2023/05/15 02:27:11;;;;;;;9.55;5.18;;;;;;;;;;5066222;28;20040;-83
2023/05/15 02:30:06;;;;;;;4.65;3.53;;;;;;;;;;5066169;28;20490;-83
2023/05/15 02:33:13;;;;;;;6.13;4.15;;;;;;;;;;5066098;28;20044;-81
2023/05/15 02:36:04;;;;;;;6.97;4.13;;;;;;;;;;5075347;28;20048;-81
2023/05/15 02:38:52;;;;;;;8.02;4.57;;;;;;;;;;5054312;28;20041;-81
2023/05/15 02:41:39;;;;;;;9.90;4.80;;;;;;;;;;5075123;28;20044;-81
2023/05/15 02:44:25;;;;;;;7.65;3.75;;;;;;;;;;5076520;28;20048;-84
2023/05/15 02:47:12;;;;;;;5.97;3.85;;;;;;;;;;5076396;28;20048;-81
2023/05/15 02:49:58;;;;;;;7.40;4.30;;;;;;;;;;5067727;28;20052;-83
2023/05/15 02:52:43;;;;;;;9.93;5.40;;;;;;;;;;5066556;28;20044;-83
2023/05/15 02:55:30;;;;;;;10.15;4.60;;;;;;;;;;5067626;28;20044;-84
2023/05/15 02:58:15;;;;;;;5.75;3.72;;;;;;;;;;5075640;28;20044;-83
2023/05/15 03:01:01;;;;;;;10.32;4.10;;;;;;;;;;5076417;28;20044;-83
2023/05/15 03:03:46;;;;;;;7.05;3.40;;;;;;;;;;5076369;28;20049;-83
2023/05/15 03:06:31;;;;;;;5.95;3.85;;;;;;;;;;5067481;28;20037;-83
2023/05/15 03:09:16;;;;;;;17.90;4.20;;;;;;;;;;5053177;28;20032;-83
2023/05/15 03:12:02;;;;;;;9.60;4.68;;;;;;;;;;5072815;28;20052;-82
2023/05/15 03:14:48;;;;;;;8.20;3.60;;;;;;;;;;5075621;28;20040;-82
2023/05/15 03:17:33;;;;;;;4.30;2.95;;;;;;;;;;5074696;28;20048;-83
2023/05/15 03:20:19;;;;;;;5.57;4.20;;;;;;;;;;5075449;28;20049;-83
2023/05/15 03:23:04;;;;;;;4.95;3.13;;;;;;;;;;5075805;28;20470;-83
2023/05/15 03:25:50;;;;;;;6.55;4.47;;;;;;;;;;5075801;28;20036;-82
2023/05/15 03:28:36;;;;;;;6.30;4.03;;;;;;;;;;5080893;28;20045;-83
2023/05/15 03:31:21;;;;;;;5.43;3.35;;;;;;;;;;5075355;28;20044;-83
2023/05/15 03:34:07;;;;;;;5.50;3.42;;;;;;;;;;5075153;28;20414;-83
2023/05/15 03:36:52;;;;;;;7.45;3.92;;;;;;;;;;5075018;28;20048;-82
2023/05/15 03:39:38;;;;;;;5.38;4.07;;;;;;;;;;5074956;28;20048;-83
2023/05/15 03:42:24;;;;;;;6.15;3.78;;;;;;;;;;5075171;28;20044;-83
2023/05/15 03:45:09;;;;;;;8.40;3.35;;;;;;;;;;5075066;28;20048;-83
2023/05/15 03:47:54;;;;;;;6.15;4.05;;;;;;;;;;5074755;28;20048;-82
2023/05/15 03:50:40;;;;;;;6.78;3.25;;;;;;;;;;5074919;28;20041;-83
2023/05/15 03:53:25;;;;;;;9.50;4.75;;;;;;;;;;5080506;28;20048;-83
2023/05/15 03:56:11;;;;;;;6.32;4.60;;;;;;;;;;5075072;28;20386;-82
2023/05/15 03:58:58;;;;;;;6.55;4.05;;;;;;;;;;5075211;28;20040;-82
2023/05/15 04:01:44;;;;;;;7.32;4.15;;;;;;;;;;5074157;28;20048;-82
2023/05/15 04:04:29;;;;;;;9.45;5.70;;;;;;;;;;5074474;28;20402;-83
2023/05/15 04:07:15;;;;;;;6.40;4.88;;;;;;;;;;5074753;28;20048;-82
2023/05/15 04:10:00;;;;;;;5.25;3.72;;;;;;;;;;5074638;28;20041;-82
2023/05/15 04:12:47;;;;;;;9.13;4.22;;;;;;;;;;5074392;28;20486;-82
2023/05/15 04:15:33;;;;;;;11.40;3.92;;;;;;;;;;5074325;28;20489;-82
2023/05/15 04:18:19;;;;;;;9.70;4.97;;;;;;;;;;5074510;28;20478;-82
2023/05/15 04:21:05;;;;;;;6.95;4.03;;;;;;;;;;5074395;28;20048;-82
2023/05/15 04:23:50;;;;;;;5.63;4.30;;;;;;;;;;5074700;28;20056;-82
2023/05/15 04:26:36;;;;;;;6.13;3.85;;;;;;;;;;5074555;28;20466;-83
2023/05/15 04:29:21;;;;;;;7.80;3.97;;;;;;;;;;5074336;28;20382;-82
2023/05/15 04:32:07;;;;;;;9.48;4.88;;;;;;;;;;5074258;28;20044;-82
2023/05/15 04:34:52;;;;;;;6.45;4.10;;;;;;;;;;5058629;28;20041;-82
2023/05/15 04:37:39;;;;;;;5.18;3.22;;;;;;;;;;5074254;28;20390;-82
2023/05/15 04:40:25;;;;;;;6.90;3.75;;;;;;;;;;5073314;28;20049;-83
2023/05/15 04:43:10;;;;;;;5.22;3.42;;;;;;;;;;5073815;28;20413;-82
2023/05/15 04:45:56;;;;;;;5.70;3.92;;;;;;;;;;5073935;28;20044;-84
2023/05/15 04:48:42;;;;;;;6.43;4.50;;;;;;;;;;5073832;28;20048;-82
2023/05/15 04:51:27;;;;;;;4.55;3.17;;;;;;;;;;5073628;28;20425;-82
2023/05/15 04:54:13;;;;;;;4.40;3.20;;;;;;;;;;5073062;28;20041;-82
2023/05/15 04:56:58;;;;;;;7.57;4.45;;;;;;;;;;5073575;28;20048;-82
2023/05/15 04:59:44;;;;;;;11.20;4.93;;;;;;;;;;5073834;28;20049;-81
2023/05/15 05:02:30;;;;;;;8.32;4.38;;;;;;;;;;5073610;28;20418;-81
2023/05/15 05:05:15;;;;;;;8.40;4.88;;;;;;;;;;5073565;28;20032;-82
2023/05/15 05:08:01;;;;;;;6.75;4.75;;;;;;;;;;5071316;28;20044;-81
2023/05/15 05:10:46;;;;;;;9.45;4.00;;;;;;;;;;5073209;28;20040;-82
2023/05/15 05:13:31;;;;;;;6.78;4.43;;;;;;;;;;5065115;28;20040;-84
2023/05/15 05:16:16;;;;;;;8.02;4.20;;;;;;;;;;5073107;28;20037;-83
2023/05/15 05:19:02;;;;;;;11.20;4.97;;;;;;;;;;5073714;28;20044;-80
2023/05/15 05:21:48;;;;;;;8.95;5.47;;;;;;;;;;5073403;28;20049;-82
2023/05/15 05:24:36;;;;;;;6.55;3.45;;;;;;;;;;5072543;28;20044;-82
2023/05/15 05:27:20;;;;;;;6.57;3.15;;;;;;;;;;5073077;28;20048;-82
2023/05/15 05:30:07;;;;;;;5.80;3.35;;;;;;;;;;5073227;28;20040;-82
2023/05/15 05:32:53;;;;;;;4.97;3.22;;;;;;;;;;5043589;28;20045;-82
2023/05/15 05:35:38;;;;;;;3.20;2.90;;;;;;;;;;5073362;28;20045;-82
2023/05/15 05:38:23;;;;;;;6.18;3.83;;;;;;;;;;5057449;28;20037;-83
2023/05/15 05:41:09;;;;;;;4.00;3.60;;;;;;;;;;5071824;28;20543;-82
2023/05/15 05:43:54;;;;;;;5.40;3.50;;;;;;;;;;5072761;28;20052;-83
2023/05/15 05:46:40;;;;;;;13.70;6.60;;;;;;;;;;5073121;28;20048;-83
2023/05/15 05:49:25;;;;;;;12.40;4.75;;;;;;;;;;5056912;28;20044;-83
2023/05/15 05:52:11;;;;;;;9.43;4.93;;;;;;;;;;5072945;28;20040;-83
2023/05/15 05:54:57;;;;;;;13.65;6.15;;;;;;;;;;5073268;28;20489;-83
2023/05/15 05:57:42;;;;;;;8.23;5.63;;;;;;;;;;5058435;28;20040;-83
2023/05/15 06:00:28;;;;;;;6.93;5.00;;;;;;;;;;5073349;28;20045;-83
2023/05/15 06:03:14;;;;;;;8.07;4.95;;;;;;;;;;5071187;28;20045;-83
2023/05/15 06:05:59;;;;;;;13.43;7.07;;;;;;;;;;5073035;28;20045;-84
2023/05/15 06:08:45;;;;;;;7.25;4.43;;;;;;;;;;5072721;28;20036;-81
2023/05/15 06:11:31;;;;;;;11.25;5.45;;;;;;;;;;5072458;28;20478;-81
2023/05/15 06:14:16;;;;;;;8.52;5.28;;;;;;;;;;5072985;28;20040;-82
2023/05/15 06:17:03;;;;;;;11.68;5.35;;;;;;;;;;5072958;28;20048;-82
2023/05/15 06:19:49;;;;;;;4.80;3.28;;;;;;;;;;5050562;28;20044;-84
2023/05/15 06:22:37;;;;;;;5.57;3.60;;;;;;;;;;5064290;28;20477;-83
2023/05/15 06:25:23;;;;;;;7.38;4.55;;;;;;;;;;5072644;28;20485;-84
2023/05/15 06:28:09;;;;;;;6.65;4.72;;;;;;;;;;5075398;28;20389;-82
2023/05/15 06:30:54;;;;;;;5.68;3.10;;;;;;;;;;5076180;28;20482;-83
2023/05/15 06:33:40;;;;;;;4.35;3.47;;;;;;;;;;5076235;28;20405;-83
2023/05/15 06:36:25;;;;;;;4.75;4.15;;;;;;;;;;5061172;28;20044;-83
2023/05/15 06:39:10;;;;;;;4.95;3.72;;;;;;;;;;5076097;28;20070;-83
2023/05/15 06:42:00;;;;;;;8.40;5.47;;;;;;;;;;5076006;28;20040;-83
2023/05/15 06:44:46;;;;;;;8.50;6.22;;;;;;;;;;5075967;28;20040;-83
2023/05/15 06:47:32;;;;;;;12.65;6.95;;;;;;;;;;5076370;28;20044;-83
2023/05/15 06:50:17;;;;;;;12.25;7.78;;;;;;;;;;5067891;28;20048;-81
2023/05/15 06:53:03;;;;;;;13.60;9.27;;;;;;;;;;5075483;28;20438;-83
2023/05/15 06:55:48;;;;;;;15.73;8.63;;;;;;;;;;5075710;28;20044;-82
2023/05/15 06:58:35;;;;;;;13.68;6.78;;;;;;;;;;5075043;28;20041;-85
2023/05/15 07:01:20;;;;;;;11.90;6.97;;;;;;;;;;5073748;28;20045;-85
2023/05/15 07:04:05;;;;;;;12.13;8.25;;;;;;;;;;5052464;28;20040;-84
2023/05/15 07:06:50;;;;;;;9.75;6.78;;;;;;;;;;5060190;28;20473;-82
2023/05/15 07:09:35;;;;;;;9.00;6.60;;;;;;;;;;5075185;28;20040;-83
2023/05/15 07:12:21;;;;;;;13.38;7.38;;;;;;;;;;5059551;28;20044;-83
2023/05/15 07:15:07;;;;;;;8.68;5.30;;;;;;;;;;5074098;28;20052;-82
2023/05/15 07:17:52;;;;;;;6.47;4.20;;;;;;;;;;5059678;28;20048;-83
2023/05/15 07:20:38;;;;;;;7.00;4.30;;;;;;;;;;5075232;28;20406;-83
2023/05/15 07:23:23;;;;;;;4.85;3.15;;;;;;;;;;5075213;28;20048;-83
2023/05/15 07:26:09;;;;;;;7.40;3.47;;;;;;;;;;5075129;28;20048;-83
2023/05/15 07:28:54;;;;;;;5.97;3.33;;;;;;;;;;5074767;28;20049;-82
2023/05/15 07:31:43;;;;;;;6.05;3.75;;;;;;;;;;5075011;28;20040;-82
2023/05/15 07:34:29;;;;;;;4.32;3.80;;;;;;;;;;5075240;28;20048;-83
2023/05/15 07:37:14;;;;;;;7.75;4.60;;;;;;;;;;5074162;28;20045;-82
2023/05/15 07:40:00;;;;;;;8.05;4.43;;;;;;;;;;5074684;28;20509;-82
2023/05/15 07:42:45;;;;;;;9.52;5.13;;;;;;;;;;5074525;28;20040;-82
2023/05/15 07:45:31;;;;;;;8.82;6.45;;;;;;;;;;5074973;28;20041;-83
2023/05/15 07:48:19;;;;;;;13.10;5.75;;;;;;;;;;5066351;28;20041;-83
2023/05/15 07:51:04;;;;;;;11.13;6.43;;;;;;;;;;5074610;28;20044;-83
2023/05/15 07:53:50;;;;;;;7.72;5.90;;;;;;;;;;5073663;28;20040;-84
2023/05/15 07:56:35;;;;;;;9.43;6.63;;;;;;;;;;5074379;28;20466;-83
2023/05/15 07:59:21;;;;;;;8.30;5.20;;;;;;;;;;5074717;28;20040;-83
2023/05/15 08:02:06;;;;;;;8.48;4.47;;;;;;;;;;5074378;28;20057;-83
2023/05/15 08:04:52;;;;;;;10.02;6.25;;;;;;;;;;5074550;28;20477;-83
2023/05/15 08:07:39;;;;;;;9.77;6.63;;;;;;;;;;5073930;28;20041;-83
2023/05/15 08:10:24;;;;;;;12.43;6.30;;;;;;;;;;5073910;28;20037;-83
2023/05/15 08:13:10;;;;;;;12.98;6.57;;;;;;;;;;5073960;28;20815;-83
2023/05/15 08:15:55;;;;;;;7.85;5.38;;;;;;;;;;5073978;28;20044;-82
2023/05/15 08:18:41;;;;;;;9.93;5.32;;;;;;;;;;5073965;28;20036;-83
2023/05/15 08:21:27;;;;;;;12.48;5.45;;;;;;;;;;5073883;28;20045;-83
2023/05/15 08:24:12;;;;;;;10.15;4.68;;;;;;;;;;5072891;28;20041;-84
2023/05/15 08:26:57;;;;;;;8.43;6.07;;;;;;;;;;5073478;28;20037;-82
2023/05/15 08:29:42;;;;;;;9.77;5.88;;;;;;;;;;5073770;28;20040;-84
2023/05/15 08:32:28;;;;;;;7.60;5.28;;;;;;;;;;5073509;28;20398;-85
2023/05/15 08:35:15;;;;;;;8.55;5.30;;;;;;;;;;5065692;28;20048;-80
2023/05/15 08:38:02;;;;;;;8.65;5.25;;;;;;;;;;5073419;28;20048;-82
2023/05/15 08:40:49;;;;;;;11.52;5.05;;;;;;;;;;5073325;28;20052;-81
2023/05/15 08:43:38;;;;;;;5.88;4.22;;;;;;;;;;5073480;28;20045;-84
2023/05/15 08:46:23;;;;;;;14.18;8.85;;;;;;;;;;5059465;28;20044;-77
2023/05/15 08:49:15;;;;;;;11.65;6.72;;;;;;;;;;5074015;28;20040;-78
2023/05/15 08:52:00;;;;;;;14.88;9.57;;;;;;;;;;5052776;28;20044;-79
2023/05/15 08:54:46;;;;;;;15.00;9.60;;;;;;;;;;5073458;28;20474;-80
2023/05/15 08:57:33;;;;;;;11.77;5.70;;;;;;;;;;5073873;28;20086;-80
2023/05/15 09:00:20;;;;;;;16.77;8.38;;;;;;;;;;5073629;28;20044;-80
2023/05/15 09:03:14;;;;;;;6.95;4.03;;;;;;;;;;5073732;28;20052;-79
2023/05/15 09:06:00;;;;;;;23.58;13.45;;;;;;;;;;5065245;28;20044;-79
2023/05/15 09:08:47;;;;;;;7.93;3.60;;;;;;;;;;5072933;28;20048;-78
2023/05/15 09:11:32;;;;;;;9.35;4.55;;;;;;;;;;5072973;28;20052;-77
2023/05/15 09:14:23;;;;;;;12.45;5.75;;;;;;;;;;5074091;28;20048;-77
2023/05/15 09:17:10;;;;;;;11.50;7.90;;;;;;;;;;5080978;28;20040;-78
2023/05/15 09:19:56;;;;;;;8.45;4.32;;;;;;;;;;5073621;28;20052;-77
2023/05/15 09:22:41;;;;;;;8.75;4.97;;;;;;;;;;5073499;28;20057;-77
2023/05/15 09:25:41;;;;;;;9.00;4.78;;;;;;;;;;5073157;28;20490;-77
2023/05/15 09:28:30;;;;;;;7.57;4.22;;;;;;;;;;5080216;28;20036;-78
2023/05/15 09:31:19;;;;;;;9.30;5.10;;;;;;;;;;5073869;28;20049;-79
2023/05/15 09:34:04;;;;;;;6.55;4.10;;;;;;;;;;5073897;28;20045;-79
2023/05/15 09:36:49;;;;;;;6.07;4.15;;;;;;;;;;5073722;28;20040;-79
2023/05/15 09:39:42;;;;;;;7.28;4.28;;;;;;;;;;5073533;28;20041;-81
2023/05/15 09:42:33;;;;;;;11.43;5.88;;;;;;;;;;5074364;28;20478;-80
2023/05/15 09:45:18;;;;;;;13.15;7.55;;;;;;;;;;5073527;28;20049;-80
2023/05/15 09:48:04;;;;;;;7.25;4.70;;;;;;;;;;5073969;28;20036;-79
2023/05/15 09:50:50;;;;;;;28.45;14.43;;;;;;;;;;5073870;28;20044;-80
2023/05/15 09:53:37;;;;;;;9.45;4.97;;;;;;;;;;5073494;28;20044;-80
2023/05/15 09:56:23;;;;;;;6.45;3.78;;;;;;;;;;5074526;28;20033;-80
2023/05/15 09:59:13;;;;;;;8.27;5.47;;;;;;;;;;5073965;28;20049;-81
2023/05/15 10:01:58;;;;;;;19.50;9.88;;;;;;;;;;5076403;28;20044;-80
2023/05/15 10:04:44;;;;;;;11.57;6.68;;;;;;;;;;5077699;28;20044;-78
2023/05/15 10:07:35;;;;;;;10.20;6.32;;;;;;;;;;5077245;28;20044;-78
2023/05/15 10:10:21;;;;;;;8.13;5.00;;;;;;;;;;5085602;28;20047;-77
2023/05/15 10:13:08;;;;;;;8.50;5.10;;;;;;;;;;5096540;28;20040;-77
2023/05/15 10:15:55;;;;;;;6.28;3.75;;;;;;;;;;5097772;28;20039;-78
2023/05/15 10:18:40;;;;;;;10.23;5.18;;;;;;;;;;5097280;28;20429;-81
2023/05/15 10:21:27;;;;;;;7.25;4.53;;;;;;;;;;5096387;28;20044;-81
2023/05/15 10:24:15;;;;;;;11.73;4.35;;;;;;;;;;5096850;28;20052;-80
2023/05/15 10:27:02;;;;;;;7.07;4.18;;;;;;;;;;5097094;28;20040;-81
2023/05/15 10:29:49;;;;;;;7.40;3.83;;;;;;;;;;5098207;28;20481;-80
2023/05/15 10:32:35;;;;;;;7.78;3.72;;;;;;;;;;5097880;28;20040;-80
2023/05/15 10:35:21;;;;;;;8.45;3.53;;;;;;;;;;5096780;28;20044;-81
2023/05/15 10:38:09;;;;;;;8.55;4.03;;;;;;;;;;5097104;28;20044;-79
2023/05/15 10:40:57;;;;;;;10.45;4.57;;;;;;;;;;5097149;28;20032;-80
2023/05/15 10:43:42;;;;;;;9.80;4.68;;;;;;;;;;5096692;28;20421;-81
2023/05/15 10:46:30;;;;;;;4.57;3.53;;;;;;;;;;5096645;28;20048;-78
2023/05/15 10:49:15;;;;;;;4.20;3.42;;;;;;;;;;5097998;28;20036;-76
2023/05/15 10:52:02;;;;;;;6.25;3.20;;;;;;;;;;5099634;28;20048;-77
2023/05/15 10:54:48;;;;;;;6.15;3.55;;;;;;;;;;5099467;28;20044;-76
2023/05/15 10:57:37;;;;;;;8.65;4.07;;;;;;;;;;5097421;28;20044;-81
2023/05/15 11:00:30;;;;;;;5.15;3.42;;;;;;;;;;5096514;28;20044;-80
2023/05/15 11:03:34;;;;;;;9.40;5.10;;;;;;;;;;5096511;28;20052;-80
2023/05/15 11:06:29;;;;;;;6.78;3.50;;;;;;;;;;5088128;28;20044;-81
2023/05/15 11:09:20;;;;;;;8.15;4.30;;;;;;;;;;5087663;28;20420;-80
2023/05/15 11:12:13;;;;;;;8.43;4.93;;;;;;;;;;5094682;28;20044;-80
2023/05/15 11:14:57;;;;;;;9.27;4.53;;;;;;;;;;5096774;28;20036;-81
2023/05/15 11:18:01;;;;;;;9.50;3.78;;;;;;;;;;5096388;28;20052;-80
2023/05/15 11:20:53;;;;;;;8.27;4.40;;;;;;;;;;5096593;28;20135;-83
2023/05/15 11:23:40;;;;;;;12.27;4.18;;;;;;;;;;5095335;28;20394;-80
2023/05/15 11:26:32;;;;;;;8.43;3.55;;;;;;;;;;5095980;28;20036;-80
2023/05/15 11:29:18;;;;;;;9.45;4.50;;;;;;;;;;5095712;28;20040;-79
2023/05/15 11:32:28;;;;;;;9.50;4.30;;;;;;;;;;5095178;28;20036;-80
2023/05/15 11:35:32;;;;;;;8.88;4.03;;;;;;;;;;5081130;28;20401;-80
2023/05/15 11:38:23;;;;;;;8.20;3.70;;;;;;;;;;5095831;28;20048;-80
2023/05/15 11:41:20;;;;;;;11.48;6.07;;;;;;;;;;5097988;28;20032;-80
2023/05/15 11:44:06;;;;;;;16.20;5.85;;;;;;;;;;5096708;28;20040;-79
2023/05/15 11:46:52;;;;;;;11.65;6.85;;;;;;;;;;5098100;28;20485;-80
2023/05/15 11:49:38;;;;;;;11.32;5.03;;;;;;;;;;5098652;28;20044;-76
2023/05/15 11:52:23;;;;;;;10.57;5.63;;;;;;;;;;5096997;28;20044;-76
2023/05/15 11:55:09;;;;;;;8.30;4.95;;;;;;;;;;5096849;28;20044;-78
2023/05/15 11:57:55;;;;;;;10.02;5.25;;;;;;;;;;5087886;28;20040;-77
2023/05/15 12:00:42;;;;;;;11.90;4.70;;;;;;;;;;5095257;28;20036;-78
2023/05/15 12:03:34;;;;;;;15.07;5.03;;;;;;;;;;5096428;28;20044;-77
2023/05/15 12:06:19;;;;;;;13.38;6.93;;;;;;;;;;5097714;28;20048;-78
2023/05/15 12:09:05;;;;;;;28.33;13.25;;;;;;;;;;5097997;28;20044;-77
2023/05/15 12:11:51;;;;;;;12.07;4.88;;;;;;;;;;5096912;28;20397;-80
2023/05/15 12:14:38;;;;;;;8.65;4.07;;;;;;;;;;5096003;28;20481;-80
2023/05/15 12:17:24;;;;;;;10.50;4.20;;;;;;;;;;5095837;28;20040;-81
2023/05/15 12:20:11;;;;;;;17.40;4.30;;;;;;;;;;5096606;28;20036;-80
2023/05/15 12:22:57;;;;;;;7.47;3.78;;;;;;;;;;5102277;28;20043;-82
2023/05/15 12:25:45;;;;;;;6.18;3.55;;;;;;;;;;5103562;28;20044;-81
2023/05/15 12:28:34;;;;;;;6.13;2.97;;;;;;;;;;5102649;28;20040;-82
2023/05/15 12:31:20;;;;;;;7.72;4.43;;;;;;;;;;5102353;28;20390;-81
2023/05/15 12:34:05;;;;;;;9.68;3.65;;;;;;;;;;5102209;28;20044;-80
2023/05/15 12:36:50;;;;;;;12.05;4.20;;;;;;;;;;5102703;28;20048;-80
2023/05/15 12:39:48;;;;;;;9.70;4.15;;;;;;;;;;5100701;28;20040;-80
2023/05/15 12:42:42;;;;;;;6.90;3.58;;;;;;;;;;5098594;28;20048;-80
2023/05/15 12:45:31;;;;;;;9.43;4.95;;;;;;;;;;5087714;28;20047;-80
2023/05/15 12:48:17;;;;;;;11.75;7.10;;;;;;;;;;5095483;28;20040;-77
2023/05/15 12:51:06;;;;;;;11.65;4.47;;;;;;;;;;5097410;28;20040;-77
2023/05/15 12:53:53;;;;;;;5.75;2.33;;;;;;;;;;5094944;28;20052;-79
2023/05/15 12:56:39;;;;;;;10.20;4.38;;;;;;;;;;5094577;28;20393;-80
2023/05/15 12:59:25;;;;;;;10.05;4.97;;;;;;;;;;5093860;28;20047;-80
2023/05/15 13:02:17;;;;;;;7.05;4.60;;;;;;;;;;5093932;28;20036;-80
2023/05/15 13:05:04;;;;;;;8.52;4.15;;;;;;;;;;5094358;28;20489;-78
2023/05/15 13:07:50;;;;;;;10.93;4.40;;;;;;;;;;5093835;28;20043;-78
2023/05/15 13:10:36;;;;;;;10.23;4.88;;;;;;;;;;5093713;28;20473;-78
2023/05/15 13:13:22;;;;;;;11.23;4.20;;;;;;;;;;5093266;28;20501;-77
2023/05/15 13:16:17;;;;;;;12.13;4.80;;;;;;;;;;5093968;28;20493;-79
2023/05/15 13:19:04;;;;;;;9.32;3.72;;;;;;;;;;5094622;28;20047;-78
2023/05/15 13:21:49;;;;;;;12.93;5.05;;;;;;;;;;5094405;28;20393;-77
2023/05/15 13:24:35;;;;;;;8.85;4.35;;;;;;;;;;5092754;28;20048;-80
2023/05/15 13:27:20;;;;;;;8.65;4.10;;;;;;;;;;5094176;28;20489;-76
2023/05/15 13:30:07;;;;;;;15.65;5.25;;;;;;;;;;5095329;28;20040;-81
2023/05/15 13:32:52;;;;;;;8.27;4.70;;;;;;;;;;5094061;28;20040;-78
2023/05/15 13:35:38;;;;;;;9.68;4.50;;;;;;;;;;5095981;28;20036;-79
2023/05/15 13:38:24;;;;;;;8.00;3.65;;;;;;;;;;5100388;28;20036;-78
2023/05/15 13:41:09;;;;;;;11.30;4.13;;;;;;;;;;5099808;28;20389;-78
2023/05/15 13:43:55;;;;;;;5.35;3.25;;;;;;;;;;5099960;28;20052;-78
2023/05/15 13:46:41;;;;;;;14.55;4.35;;;;;;;;;;5099963;28;20044;-77
2023/05/15 13:49:26;;;;;;;5.53;3.42;;;;;;;;;;5099260;28;20044;-78
2023/05/15 13:52:12;;;;;;;9.02;3.35;;;;;;;;;;5099258;28;20052;-78
2023/05/15 13:54:57;;;;;;;11.30;4.88;;;;;;;;;;5099531;28;20334;-78
2023/05/15 13:57:44;;;;;;;11.40;5.72;;;;;;;;;;5100313;28;20138;-78
2023/05/15 14:00:28;;;;;;;9.48;4.22;;;;;;;;;;5100038;28;20044;-78
2023/05/15 14:03:13;;;;;;;7.00;3.45;;;;;;;;;;5100597;28;20040;-76
2023/05/15 14:05:59;;;;;;;9.57;6.03;;;;;;;;;;5082116;28;20040;-78
2023/05/15 14:08:44;;;;;;;10.68;5.43;;;;;;;;;;5098483;28;20044;-80
2023/05/15 14:11:30;;;;;;;12.05;5.70;;;;;;;;;;5099799;28;20040;-78
2023/05/15 14:14:15;;;;;;;14.35;5.75;;;;;;;;;;5099624;28;20047;-76
2023/05/15 14:17:01;;;;;;;14.23;5.78;;;;;;;;;;5098602;28;20040;-78
2023/05/15 14:19:47;;;;;;;10.57;5.00;;;;;;;;;;5102823;28;20400;-78
2023/05/15 14:22:32;;;;;;;17.42;7.00;;;;;;;;;;5109904;28;20051;-79
2023/05/15 14:25:18;;;;;;;12.02;5.25;;;;;;;;;;5103725;28;20036;-78
2023/05/15 14:28:03;;;;;;;17.27;6.53;;;;;;;;;;5103835;28;20048;-78
2023/05/15 14:30:49;;;;;;;9.80;4.90;;;;;;;;;;5102940;28;20508;-78
2023/05/15 14:33:35;;;;;;;8.52;5.20;;;;;;;;;;5096688;28;20040;-77
2023/05/15 14:36:20;;;;;;;14.32;5.30;;;;;;;;;;5096584;28;20048;-78
2023/05/15 14:39:06;;;;;;;10.63;5.53;;;;;;;;;;5096383;28;20052;-78
2023/05/15 14:41:51;;;;;;;7.40;4.55;;;;;;;;;;5097260;28;20048;-79
2023/05/15 14:44:37;;;;;;;14.80;5.68;;;;;;;;;;5099344;28;20043;-78
2023/05/15 14:47:24;;;;;;;13.82;5.28;;;;;;;;;;5096693;28;20044;-78
2023/05/15 14:50:09;;;;;;;11.02;4.90;;;;;;;;;;5097571;28;20040;-78
2023/05/15 14:52:54;;;;;;;15.02;4.70;;;;;;;;;;5097577;28;20043;-77
2023/05/15 14:55:40;;;;;;;8.18;4.18;;;;;;;;;;5097582;28;20044;-77
2023/05/15 14:58:26;;;;;;;9.93;4.70;;;;;;;;;;5097757;28;20036;-80
2023/05/15 15:01:11;;;;;;;13.70;4.90;;;;;;;;;;5098610;28;20044;-76
2023/05/15 15:03:56;;;;;;;11.32;4.57;;;;;;;;;;5088341;28;20048;-77
2023/05/15 15:06:43;;;;;;;9.07;4.32;;;;;;;;;;5096477;28;20052;-77
2023/05/15 15:09:28;;;;;;;11.57;4.80;;;;;;;;;;5098533;28;20052;-77
2023/05/15 15:12:14;;;;;;;8.88;3.85;;;;;;;;;;5098768;28;20473;-77
2023/05/15 15:14:59;;;;;;;10.30;4.43;;;;;;;;;;5098489;28;20036;-78
2023/05/15 15:17:45;;;;;;;10.65;4.32;;;;;;;;;;5096666;28;20056;-79
2023/05/15 15:20:31;;;;;;;8.40;3.05;;;;;;;;;;5097819;28;20052;-77
2023/05/15 15:23:16;;;;;;;12.20;4.40;;;;;;;;;;5089356;28;20051;-79
2023/05/15 15:26:02;;;;;;;9.85;4.45;;;;;;;;;;5095858;28;20043;-82
2023/05/15 15:28:48;;;;;;;6.88;4.05;;;;;;;;;;5095237;28;20036;-80
2023/05/15 15:31:33;;;;;;;8.73;3.92;;;;;;;;;;5095919;28;20044;-81
2023/05/15 15:34:19;;;;;;;12.43;5.68;;;;;;;;;;5115143;28;20477;-81
2023/05/15 15:37:04;;;;;;;14.45;6.40;;;;;;;;;;5114418;28;20031;-80
2023/05/15 15:39:49;;;;;;;11.95;5.43;;;;;;;;;;5115090;28;20040;-80
2023/05/15 15:42:35;;;;;;;11.23;5.72;;;;;;;;;;5115002;28;20047;-82
2023/05/15 15:45:21;;;;;;;12.70;4.35;;;;;;;;;;5115781;28;20044;-82
2023/05/15 15:48:06;;;;;;;10.40;4.65;;;;;;;;;;5115765;28;20055;-82
2023/05/15 15:50:52;;;;;;;9.70;5.97;;;;;;;;;;5115467;28;20048;-81
2023/05/15 15:53:37;;;;;;;10.18;6.00;;;;;;;;;;5115075;28;20039;-81
2023/05/15 15:56:23;;;;;;;11.80;5.47;;;;;;;;;;5115044;28;20397;-81
2023/05/15 15:59:09;;;;;;;12.93;6.30;;;;;;;;;;5114208;28;20044;-83
2023/05/15 16:01:55;;;;;;;20.65;7.25;;;;;;;;;;5115198;28;20040;-81
2023/05/15 16:04:40;;;;;;;9.65;5.93;;;;;;;;;;5115014;28;20040;-82
2023/05/15 16:07:26;;;;;;;15.88;6.90;;;;;;;;;;5114783;28;20043;-82
2023/05/15 16:10:11;;;;;;;7.75;4.60;;;;;;;;;;5114687;28;20047;-83
2023/05/15 16:12:57;;;;;;;12.35;6.57;;;;;;;;;;5114952;28;20047;-82
2023/05/15 16:15:42;;;;;;;10.15;5.38;;;;;;;;;;5115081;28;20051;-83
2023/05/15 16:18:28;;;;;;;18.88;7.72;;;;;;;;;;5106312;28;20036;-81
2023/05/15 16:21:12;;;;;;;9.90;5.45;;;;;;;;;;5114362;28;20147;-82
2023/05/15 16:23:58;;;;;;;11.63;6.28;;;;;;;;;;5114798;28;20488;-82
2023/05/15 16:26:44;;;;;;;12.65;6.13;;;;;;;;;;5114820;28;20400;-82
2023/05/15 16:29:29;;;;;;;9.93;6.25;;;;;;;;;;5114524;28;20035;-82
2023/05/15 16:32:15;;;;;;;13.85;6.35;;;;;;;;;;5114348;28;20052;-82
2023/05/15 16:35:00;;;;;;;15.98;6.32;;;;;;;;;;5114269;28;20051;-83